createdAt,value
2018-11-04T00:00:17.268Z,0.00
2018-11-04T00:01:17.254Z,0.00
2018-11-04T00:02:17.239Z,0.00
2018-11-04T00:03:17.223Z,0.00
2018-11-04T00:04:17.209Z,0.00
2018-11-04T00:05:17.196Z,0.00
2018-11-04T00:06:17.184Z,0.00
2018-11-04T00:07:17.370Z,0.00
2018-11-04T00:08:17.155Z,0.00
2018-11-04T00:09:17.141Z,0.00
2018-11-04T00:10:17.128Z,0.00
2018-11-04T00:11:17.115Z,0.00
2018-11-04T00:12:17.099Z,0.00
2018-11-04T00:13:17.248Z,0.00
2018-11-04T00:14:17.072Z,0.00
2018-11-04T00:15:17.057Z,0.00
2018-11-04T00:16:17.043Z,0.00
2018-11-04T00:17:17.030Z,0.00
2018-11-04T00:18:17.017Z,0.00
2018-11-04T00:19:17.000Z,0.00
2018-11-04T00:20:17.036Z,0.00
2018-11-04T00:21:16.978Z,0.00
2018-11-04T00:22:16.961Z,0.00
2018-11-04T00:23:16.945Z,0.00
2018-11-04T00:24:16.931Z,0.00
2018-11-04T00:25:16.917Z,0.00
2018-11-04T00:26:16.903Z,0.00
2018-11-04T00:27:16.925Z,0.00
2018-11-04T00:28:16.874Z,0.00
2018-11-04T00:29:16.859Z,0.00
2018-11-04T00:30:16.845Z,0.00
2018-11-04T00:31:16.830Z,0.00
2018-11-04T00:32:16.816Z,0.00
2018-11-04T00:33:16.801Z,0.00
2018-11-04T00:34:16.794Z,0.00
2018-11-04T00:35:16.775Z,0.00
2018-11-04T00:36:16.759Z,0.00
2018-11-04T00:37:16.746Z,0.00
2018-11-04T00:38:16.735Z,0.00
2018-11-04T00:39:16.716Z,0.00
2018-11-04T00:40:16.703Z,0.00
2018-11-04T00:41:16.689Z,0.00
2018-11-04T00:42:16.674Z,0.00
2018-11-04T00:43:16.760Z,0.00
2018-11-04T00:44:16.647Z,0.00
2018-11-04T00:45:16.705Z,0.00
2018-11-04T00:46:16.618Z,0.00
2018-11-04T00:47:16.603Z,0.00
2018-11-04T00:48:16.591Z,0.00
2018-11-04T00:49:16.575Z,0.00
2018-11-04T00:50:16.566Z,0.00
2018-11-04T00:51:16.546Z,0.00
2018-11-04T00:52:16.534Z,0.00
2018-11-04T00:53:16.518Z,0.00
2018-11-04T00:54:16.506Z,0.00
2018-11-04T00:55:16.492Z,0.00
2018-11-04T00:56:16.479Z,0.00
2018-11-04T00:57:16.464Z,0.00
2018-11-04T00:58:16.451Z,0.00
2018-11-04T00:59:16.436Z,0.00
2018-11-04T01:00:16.422Z,0.00
2018-11-04T01:01:16.409Z,0.00
2018-11-04T01:02:16.394Z,0.00
2018-11-04T01:03:16.381Z,0.00
2018-11-04T01:04:16.367Z,0.00
2018-11-04T01:05:16.354Z,0.00
2018-11-04T01:06:16.340Z,0.00
2018-11-04T01:07:16.324Z,0.00
2018-11-04T01:08:16.310Z,0.00
2018-11-04T01:09:16.492Z,0.00
2018-11-04T01:10:16.283Z,0.00
2018-11-04T01:11:16.272Z,0.00
2018-11-04T01:12:16.258Z,0.00
2018-11-04T01:13:16.243Z,0.00
2018-11-04T01:14:16.228Z,0.00
2018-11-04T01:15:16.416Z,0.00
2018-11-04T01:16:16.200Z,0.00
2018-11-04T01:17:16.187Z,0.00
2018-11-04T01:18:16.171Z,0.00
2018-11-04T01:19:16.158Z,0.00
2018-11-04T01:20:16.144Z,0.00
2018-11-04T01:21:16.216Z,0.00
2018-11-04T01:22:16.117Z,0.00
2018-11-04T01:23:16.104Z,0.00
2018-11-04T01:24:16.121Z,0.00
2018-11-04T01:25:16.081Z,0.00
2018-11-04T01:26:16.063Z,0.00
2018-11-04T01:27:16.049Z,0.00
2018-11-04T01:28:16.035Z,0.00
2018-11-04T01:29:16.083Z,0.00
2018-11-04T01:30:16.098Z,0.00
2018-11-04T01:31:15.993Z,0.00
2018-11-04T01:32:15.981Z,0.00
2018-11-04T01:33:15.972Z,0.00
2018-11-04T01:34:16.159Z,0.00
2018-11-04T01:35:15.941Z,0.00
2018-11-04T01:36:15.928Z,0.00
2018-11-04T01:37:15.912Z,0.00
2018-11-04T01:38:15.899Z,0.00
2018-11-04T01:39:16.135Z,0.00
2018-11-04T01:40:15.875Z,0.00
2018-11-04T01:41:15.857Z,0.00
2018-11-04T01:42:15.843Z,0.00
2018-11-04T01:43:15.828Z,0.00
2018-11-04T01:44:15.814Z,0.00
2018-11-04T01:45:15.800Z,0.00
2018-11-04T01:46:15.787Z,0.00
2018-11-04T01:47:15.772Z,0.00
2018-11-04T01:48:15.758Z,0.00
2018-11-04T01:49:15.745Z,0.00
2018-11-04T01:50:15.731Z,0.00
2018-11-04T01:51:15.718Z,0.00
2018-11-04T01:52:15.702Z,0.00
2018-11-04T01:53:15.689Z,0.00
2018-11-04T01:54:15.680Z,0.00
2018-11-04T01:55:15.661Z,0.00
2018-11-04T01:56:15.645Z,0.00
2018-11-04T01:57:15.632Z,0.00
2018-11-04T01:58:15.617Z,0.00
2018-11-04T01:59:15.603Z,0.00
2018-11-04T02:00:15.587Z,0.00
2018-11-04T02:01:15.579Z,0.00
2018-11-04T02:02:15.561Z,0.00
2018-11-04T02:03:15.546Z,0.00
2018-11-04T02:04:15.534Z,0.00
2018-11-04T02:05:15.519Z,0.00
2018-11-04T02:06:15.504Z,0.00
2018-11-04T02:07:15.489Z,0.00
2018-11-04T02:08:15.476Z,0.00
2018-11-04T02:09:15.461Z,0.00
2018-11-04T02:10:15.698Z,0.00
2018-11-04T02:11:15.436Z,0.00
2018-11-04T02:12:15.421Z,0.00
2018-11-04T02:13:15.405Z,0.00
2018-11-04T02:14:15.392Z,0.00
2018-11-04T02:15:15.483Z,0.00
2018-11-04T02:16:15.367Z,0.00
2018-11-04T02:17:15.348Z,0.00
2018-11-04T02:18:15.335Z,0.00
2018-11-04T02:19:15.321Z,0.00
2018-11-04T02:20:15.307Z,0.00
2018-11-04T02:21:15.293Z,0.00
2018-11-04T02:22:15.279Z,0.00
2018-11-04T02:23:15.265Z,0.00
2018-11-04T02:24:15.250Z,0.00
2018-11-04T02:25:15.236Z,0.00
2018-11-04T02:26:15.224Z,0.00
2018-11-04T02:27:15.207Z,0.00
2018-11-04T02:28:15.196Z,0.00
2018-11-04T02:29:15.187Z,0.00
2018-11-04T02:30:15.169Z,0.00
2018-11-04T02:31:15.154Z,0.00
2018-11-04T02:32:15.139Z,0.00
2018-11-04T02:33:15.130Z,0.00
2018-11-04T02:34:15.113Z,0.00
2018-11-04T02:35:15.103Z,0.00
2018-11-04T02:36:15.085Z,0.00
2018-11-04T02:37:15.071Z,0.00
2018-11-04T02:38:15.058Z,0.00
2018-11-04T02:39:15.043Z,0.00
2018-11-04T02:40:15.036Z,0.00
2018-11-04T02:41:15.116Z,0.00
2018-11-04T02:42:15.002Z,0.00
2018-11-04T02:43:14.988Z,0.00
2018-11-04T02:44:14.974Z,0.00
2018-11-04T02:45:14.961Z,0.00
2018-11-04T02:46:14.947Z,0.00
2018-11-04T02:47:14.933Z,0.00
2018-11-04T02:48:14.924Z,0.00
2018-11-04T02:49:14.906Z,0.00
2018-11-04T02:50:14.913Z,0.00
2018-11-04T02:51:14.878Z,0.00
2018-11-04T02:52:14.865Z,0.00
2018-11-04T02:53:14.856Z,0.00
2018-11-04T02:54:14.841Z,0.00
2018-11-04T02:55:14.823Z,0.00
2018-11-04T02:56:14.810Z,0.00
2018-11-04T02:57:14.797Z,0.00
2018-11-04T02:58:14.782Z,0.00
2018-11-04T02:59:14.768Z,0.00
2018-11-04T03:00:14.756Z,0.00
2018-11-04T03:01:14.742Z,0.00
2018-11-04T03:02:14.729Z,0.00
2018-11-04T03:03:14.712Z,0.00
2018-11-04T03:04:14.701Z,0.00
2018-11-04T03:05:14.692Z,0.00
2018-11-04T03:06:14.674Z,0.00
2018-11-04T03:07:14.660Z,0.00
2018-11-04T03:08:14.647Z,0.00
2018-11-04T03:09:14.633Z,0.00
2018-11-04T03:10:14.626Z,0.00
2018-11-04T03:11:14.610Z,0.00
2018-11-04T03:12:15.047Z,0.00
2018-11-04T03:13:14.581Z,0.00
2018-11-04T03:14:14.565Z,0.00
2018-11-04T03:15:14.556Z,0.00
2018-11-04T03:16:14.538Z,0.00
2018-11-04T03:17:14.528Z,0.00
2018-11-04T03:18:14.511Z,0.00
2018-11-04T03:19:14.496Z,0.00
2018-11-04T03:20:14.483Z,0.00
2018-11-04T03:21:14.470Z,0.00
2018-11-04T03:22:14.657Z,0.00
2018-11-04T03:23:14.441Z,0.00
2018-11-04T03:24:14.432Z,0.00
2018-11-04T03:25:14.414Z,0.00
2018-11-04T03:26:14.423Z,0.00
2018-11-04T03:27:14.387Z,0.00
2018-11-04T03:28:14.374Z,0.00
2018-11-04T03:29:14.364Z,0.00
2018-11-04T03:30:14.351Z,0.00
2018-11-04T03:31:14.332Z,0.00
2018-11-04T03:32:14.318Z,0.00
2018-11-04T03:33:14.305Z,0.00
2018-11-04T03:34:14.292Z,0.00
2018-11-04T03:35:14.277Z,0.00
2018-11-04T03:36:14.264Z,0.00
2018-11-04T03:37:14.251Z,0.00
2018-11-04T03:38:14.237Z,0.00
2018-11-04T03:39:14.223Z,0.00
2018-11-04T03:40:14.208Z,0.00
2018-11-04T03:41:14.197Z,0.00
2018-11-04T03:42:14.182Z,0.00
2018-11-04T03:43:14.167Z,0.00
2018-11-04T03:44:14.154Z,0.00
2018-11-04T03:45:14.140Z,0.00
2018-11-04T03:46:14.127Z,0.00
2018-11-04T03:47:14.119Z,0.00
2018-11-04T03:48:14.099Z,0.00
2018-11-04T03:49:14.083Z,0.00
2018-11-04T03:50:14.072Z,0.00
2018-11-04T03:51:14.058Z,0.00
2018-11-04T03:52:14.043Z,0.00
2018-11-04T03:53:14.029Z,0.00
2018-11-04T03:54:14.016Z,0.00
2018-11-04T03:55:14.001Z,0.00
2018-11-04T03:56:13.987Z,0.00
2018-11-04T03:57:13.974Z,0.00
2018-11-04T03:58:13.960Z,0.00
2018-11-04T03:59:13.946Z,0.00
2018-11-04T04:00:13.933Z,0.00
2018-11-04T04:01:13.931Z,0.00
2018-11-04T04:02:13.905Z,0.00
2018-11-04T04:03:13.890Z,0.00
2018-11-04T04:04:13.876Z,0.00
2018-11-04T04:05:13.863Z,0.00
2018-11-04T04:06:14.055Z,0.00
2018-11-04T04:07:13.835Z,0.00
2018-11-04T04:08:13.822Z,0.00
2018-11-04T04:09:13.808Z,0.00
2018-11-04T04:10:13.794Z,0.00
2018-11-04T04:11:13.779Z,0.00
2018-11-04T04:12:13.770Z,0.00
2018-11-04T04:13:13.852Z,0.00
2018-11-04T04:14:13.740Z,0.00
2018-11-04T04:15:13.724Z,0.00
2018-11-04T04:16:13.710Z,0.00
2018-11-04T04:17:13.696Z,0.00
2018-11-04T04:18:13.687Z,0.00
2018-11-04T04:19:13.671Z,0.00
2018-11-04T04:20:13.656Z,0.00
2018-11-04T04:21:13.642Z,0.00
2018-11-04T04:22:13.628Z,0.00
2018-11-04T04:23:13.614Z,0.00
2018-11-04T04:24:13.604Z,0.00
2018-11-04T04:25:13.587Z,0.00
2018-11-04T04:26:13.573Z,0.00
2018-11-04T04:27:13.558Z,0.00
2018-11-04T04:28:13.545Z,0.00
2018-11-04T04:29:13.531Z,0.00
2018-11-04T04:30:13.520Z,0.00
2018-11-04T04:31:13.503Z,0.00
2018-11-04T04:32:13.493Z,0.00
2018-11-04T04:33:13.476Z,0.00
2018-11-04T04:34:13.462Z,0.00
2018-11-04T04:35:13.448Z,0.00
2018-11-04T04:36:13.435Z,0.00
2018-11-04T04:37:13.421Z,0.00
2018-11-04T04:38:13.408Z,0.00
2018-11-04T04:39:13.392Z,0.00
2018-11-04T04:40:13.379Z,0.00
2018-11-04T04:41:13.365Z,0.00
2018-11-04T04:42:13.351Z,0.00
2018-11-04T04:43:13.337Z,0.00
2018-11-04T04:44:13.324Z,0.00
2018-11-04T04:45:13.311Z,0.00
2018-11-04T04:46:13.297Z,0.00
2018-11-04T04:47:13.282Z,0.00
2018-11-04T04:48:13.266Z,0.00
2018-11-04T04:49:13.253Z,0.00
2018-11-04T04:50:13.243Z,0.00
2018-11-04T04:51:13.226Z,0.00
2018-11-04T04:52:13.212Z,0.00
2018-11-04T04:53:13.199Z,0.00
2018-11-04T04:54:13.190Z,0.00
2018-11-04T04:55:13.171Z,0.00
2018-11-04T04:56:13.158Z,0.00
2018-11-04T04:57:13.141Z,0.00
2018-11-04T04:58:13.127Z,0.00
2018-11-04T04:59:13.113Z,0.00
2018-11-04T05:01:13.086Z,0.00
2018-11-04T05:02:13.069Z,0.00
2018-11-04T05:03:13.055Z,0.00
2018-11-04T05:04:13.040Z,0.00
2018-11-04T05:05:13.027Z,0.00
2018-11-04T05:06:13.012Z,0.00
2018-11-04T05:07:12.997Z,0.00
2018-11-04T05:08:12.982Z,0.00
2018-11-04T05:09:12.969Z,0.00
2018-11-04T05:10:12.954Z,0.00
2018-11-04T05:11:12.937Z,0.00
2018-11-04T05:12:12.924Z,0.00
2018-11-04T05:13:12.917Z,0.00
2018-11-04T05:14:12.995Z,0.00
2018-11-04T05:15:12.882Z,0.00
2018-11-04T05:16:12.866Z,0.00
2018-11-04T05:17:12.850Z,0.00
2018-11-04T05:18:12.836Z,0.00
2018-11-04T05:19:12.835Z,0.00
2018-11-04T05:20:12.807Z,0.00
2018-11-04T05:21:12.793Z,0.00
2018-11-04T05:22:12.778Z,0.00
2018-11-04T05:23:12.766Z,0.00
2018-11-04T05:24:12.749Z,0.00
2018-11-04T05:25:12.735Z,0.00
2018-11-04T05:26:12.721Z,0.00
2018-11-04T05:27:12.706Z,0.00
2018-11-04T05:28:12.691Z,0.00
2018-11-04T05:29:12.677Z,0.00
2018-11-04T05:30:12.663Z,0.00
2018-11-04T05:31:12.649Z,0.00
2018-11-04T05:32:12.634Z,0.00
2018-11-04T05:33:12.622Z,0.00
2018-11-04T05:34:12.610Z,0.00
2018-11-04T05:35:12.592Z,0.00
2018-11-04T05:36:12.578Z,0.00
2018-11-04T05:37:12.566Z,0.00
2018-11-04T05:38:12.606Z,0.00
2018-11-04T05:39:12.536Z,0.00
2018-11-04T05:40:12.526Z,0.00
2018-11-04T05:41:12.509Z,0.00
2018-11-04T05:42:12.496Z,0.00
2018-11-04T05:43:12.480Z,0.00
2018-11-04T05:44:12.469Z,0.00
2018-11-04T05:45:12.453Z,0.00
2018-11-04T05:46:12.439Z,0.00
2018-11-04T05:47:12.427Z,0.00
2018-11-04T05:48:12.412Z,0.00
2018-11-04T05:49:12.402Z,0.00
2018-11-04T05:50:12.384Z,0.00
2018-11-04T05:51:12.371Z,0.00
2018-11-04T05:52:12.557Z,0.00
2018-11-04T05:53:12.345Z,0.00
2018-11-04T05:54:12.331Z,0.00
2018-11-04T05:55:12.314Z,0.00
2018-11-04T05:56:12.300Z,0.00
2018-11-04T05:57:12.286Z,0.00
2018-11-04T05:58:12.272Z,0.00
2018-11-04T05:59:12.257Z,0.00
2018-11-04T06:00:12.247Z,0.00
2018-11-04T06:01:12.231Z,0.00
2018-11-04T06:02:12.216Z,0.00
2018-11-04T06:03:12.200Z,0.00
2018-11-04T06:04:12.188Z,0.00
2018-11-04T06:05:12.174Z,0.00
2018-11-04T06:06:12.160Z,0.00
2018-11-04T06:07:12.144Z,0.00
2018-11-04T06:08:12.131Z,0.00
2018-11-04T06:09:12.118Z,0.00
2018-11-04T06:10:12.104Z,0.00
2018-11-04T06:11:12.092Z,0.00
2018-11-04T06:12:12.079Z,0.00
2018-11-04T06:13:12.062Z,0.00
2018-11-04T06:14:12.048Z,0.00
2018-11-04T06:15:12.036Z,0.00
2018-11-04T06:16:12.019Z,0.00
2018-11-04T06:17:12.006Z,0.00
2018-11-04T06:18:11.995Z,0.00
2018-11-04T06:19:11.979Z,0.00
2018-11-04T06:20:11.963Z,0.00
2018-11-04T06:21:11.950Z,0.00
2018-11-04T06:22:11.936Z,0.00
2018-11-04T06:23:11.921Z,5.63
2018-11-04T06:24:11.909Z,5.63
2018-11-04T06:25:11.903Z,5.63
2018-11-04T06:26:11.879Z,5.63
2018-11-04T06:27:11.864Z,5.63
2018-11-04T06:28:11.850Z,5.63
2018-11-04T06:29:11.837Z,5.63
2018-11-04T06:30:11.823Z,11.25
2018-11-04T06:31:11.808Z,11.25
2018-11-04T06:32:11.797Z,11.25
2018-11-04T06:33:11.779Z,11.25
2018-11-04T06:34:11.768Z,11.25
2018-11-04T06:35:11.751Z,16.88
2018-11-04T06:36:11.739Z,16.88
2018-11-04T06:37:11.724Z,16.88
2018-11-04T06:38:11.711Z,16.88
2018-11-04T06:39:11.697Z,22.50
2018-11-04T06:40:11.681Z,22.50
2018-11-04T06:41:11.771Z,22.50
2018-11-04T06:42:11.655Z,28.13
2018-11-04T06:43:11.640Z,28.13
2018-11-04T06:44:11.628Z,28.13
2018-11-04T06:45:11.625Z,28.13
2018-11-04T06:46:11.600Z,33.75
2018-11-04T06:47:11.712Z,33.75
2018-11-04T06:48:11.572Z,33.75
2018-11-04T06:49:11.556Z,39.38
2018-11-04T06:50:11.541Z,39.38
2018-11-04T06:51:11.526Z,39.38
2018-11-04T06:52:11.513Z,45.00
2018-11-04T06:53:11.498Z,45.00
2018-11-04T06:54:11.483Z,45.00
2018-11-04T06:55:11.474Z,50.63
2018-11-04T06:56:11.460Z,50.63
2018-11-04T06:57:11.441Z,50.63
2018-11-04T06:58:11.428Z,56.25
2018-11-04T06:59:11.415Z,56.25
2018-11-04T07:00:11.748Z,61.88
2018-11-04T07:01:11.382Z,61.88
2018-11-04T07:02:11.373Z,67.50
2018-11-04T07:03:11.357Z,73.13
2018-11-04T07:04:11.338Z,78.75
2018-11-04T07:05:11.323Z,78.75
2018-11-04T07:06:11.309Z,84.38
2018-11-04T07:07:11.295Z,84.38
2018-11-04T07:08:11.285Z,84.38
2018-11-04T07:09:11.369Z,84.38
2018-11-04T07:10:11.256Z,90.00
2018-11-04T07:11:11.439Z,90.00
2018-11-04T07:12:11.225Z,95.63
2018-11-04T07:13:11.210Z,95.63
2018-11-04T07:14:11.196Z,101.25
2018-11-04T07:15:11.185Z,106.88
2018-11-04T07:16:11.173Z,106.88
2018-11-04T07:17:11.156Z,106.88
2018-11-04T07:18:11.143Z,112.50
2018-11-04T07:19:11.127Z,118.13
2018-11-04T07:20:11.111Z,118.13
2018-11-04T07:21:11.100Z,123.75
2018-11-04T07:22:11.091Z,123.75
2018-11-04T07:23:11.069Z,129.38
2018-11-04T07:24:11.055Z,135.00
2018-11-04T07:25:11.041Z,135.00
2018-11-04T07:26:11.031Z,140.63
2018-11-04T07:27:11.014Z,140.63
2018-11-04T07:28:10.999Z,146.25
2018-11-04T07:29:10.986Z,151.88
2018-11-04T07:30:10.972Z,151.88
2018-11-04T07:31:10.962Z,157.50
2018-11-04T07:32:11.026Z,157.50
2018-11-04T07:33:10.931Z,157.50
2018-11-04T07:34:10.921Z,157.50
2018-11-04T07:35:10.903Z,163.13
2018-11-04T07:36:10.893Z,168.75
2018-11-04T07:37:10.881Z,168.75
2018-11-04T07:38:10.866Z,168.75
2018-11-04T07:39:10.852Z,174.38
2018-11-04T07:40:10.837Z,174.38
2018-11-04T07:41:10.830Z,180.00
2018-11-04T07:42:10.812Z,185.63
2018-11-04T07:43:10.797Z,191.25
2018-11-04T07:44:10.823Z,191.25
2018-11-04T07:45:10.783Z,191.25
2018-11-04T07:46:10.761Z,191.25
2018-11-04T07:47:10.748Z,185.63
2018-11-04T07:48:10.737Z,191.25
2018-11-04T07:49:10.724Z,185.63
2018-11-04T07:50:10.717Z,185.63
2018-11-04T07:51:10.700Z,185.63
2018-11-04T07:52:10.893Z,191.25
2018-11-04T07:53:10.683Z,196.88
2018-11-04T07:54:10.670Z,202.50
2018-11-04T07:55:10.651Z,202.50
2018-11-04T07:56:10.648Z,202.50
2018-11-04T07:57:10.627Z,208.13
2018-11-04T07:58:10.619Z,213.75
2018-11-04T07:59:10.609Z,213.75
2018-11-04T08:00:10.596Z,219.38
2018-11-04T08:01:10.587Z,225.00
2018-11-04T08:02:10.570Z,230.63
2018-11-04T08:03:10.561Z,247.50
2018-11-04T08:04:10.559Z,253.13
2018-11-04T08:05:10.540Z,264.38
2018-11-04T08:06:10.523Z,281.25
2018-11-04T08:07:10.510Z,298.13
2018-11-04T08:08:10.506Z,309.38
2018-11-04T08:09:10.487Z,326.25
2018-11-04T08:10:10.477Z,331.88
2018-11-04T08:11:10.466Z,343.13
2018-11-04T08:12:10.453Z,348.75
2018-11-04T08:13:10.442Z,348.75
2018-11-04T08:14:10.435Z,348.75
2018-11-04T08:15:10.424Z,360.00
2018-11-04T08:16:10.409Z,365.63
2018-11-04T08:17:10.398Z,382.50
2018-11-04T08:18:10.386Z,388.13
2018-11-04T08:19:10.375Z,388.13
2018-11-04T08:20:10.372Z,388.13
2018-11-04T08:21:10.358Z,376.88
2018-11-04T08:22:10.348Z,388.13
2018-11-04T08:23:10.335Z,405.00
2018-11-04T08:24:10.321Z,410.63
2018-11-04T08:25:10.316Z,421.88
2018-11-04T08:26:10.306Z,433.13
2018-11-04T08:27:10.288Z,427.50
2018-11-04T08:28:10.278Z,427.50
2018-11-04T08:29:10.270Z,433.13
2018-11-04T08:30:10.258Z,450.00
2018-11-04T08:31:10.247Z,466.88
2018-11-04T08:32:10.237Z,483.75
2018-11-04T08:33:10.231Z,506.25
2018-11-04T08:34:10.217Z,517.50
2018-11-04T08:35:10.210Z,528.75
2018-11-04T08:36:10.199Z,540.00
2018-11-04T08:37:10.189Z,545.63
2018-11-04T08:38:10.181Z,551.25
2018-11-04T08:39:10.168Z,556.88
2018-11-04T08:40:10.298Z,562.50
2018-11-04T08:41:10.148Z,562.50
2018-11-04T08:42:10.140Z,568.13
2018-11-04T08:43:10.130Z,556.88
2018-11-04T08:44:10.124Z,545.63
2018-11-04T08:45:10.312Z,556.88
2018-11-04T08:46:10.104Z,579.38
2018-11-04T08:47:10.095Z,596.25
2018-11-04T08:48:10.083Z,601.88
2018-11-04T08:49:10.078Z,596.25
2018-11-04T08:50:10.065Z,590.63
2018-11-04T08:51:10.054Z,585.00
2018-11-04T08:52:10.047Z,585.00
2018-11-04T08:53:10.037Z,585.00
2018-11-04T08:54:10.035Z,585.00
2018-11-04T08:55:10.019Z,585.00
2018-11-04T08:56:10.013Z,585.00
2018-11-04T08:57:10.001Z,556.88
2018-11-04T08:58:10.001Z,540.00
2018-11-04T08:59:09.982Z,534.38
2018-11-04T09:00:10.091Z,528.75
2018-11-04T09:01:09.968Z,534.38
2018-11-04T09:02:09.955Z,545.63
2018-11-04T09:03:09.947Z,562.50
2018-11-04T09:04:09.943Z,562.50
2018-11-04T09:05:09.930Z,528.75
2018-11-04T09:06:09.925Z,500.63
2018-11-04T09:07:09.917Z,483.75
2018-11-04T09:08:09.908Z,478.13
2018-11-04T09:09:09.896Z,483.75
2018-11-04T09:10:09.888Z,489.38
2018-11-04T09:11:09.884Z,489.38
2018-11-04T09:12:09.870Z,483.75
2018-11-04T09:13:09.863Z,478.13
2018-11-04T09:14:09.869Z,478.13
2018-11-04T09:15:09.847Z,478.13
2018-11-04T09:16:09.838Z,483.75
2018-11-04T09:17:09.828Z,489.38
2018-11-04T09:18:09.825Z,495.00
2018-11-04T09:19:09.810Z,489.38
2018-11-04T09:20:09.803Z,483.75
2018-11-04T09:21:09.794Z,466.88
2018-11-04T09:22:09.824Z,472.50
2018-11-04T09:23:09.979Z,478.13
2018-11-04T09:24:09.768Z,478.13
2018-11-04T09:25:09.761Z,489.38
2018-11-04T09:26:09.757Z,495.00
2018-11-04T09:27:09.748Z,511.88
2018-11-04T09:28:09.736Z,534.38
2018-11-04T09:29:09.796Z,556.88
2018-11-04T09:30:09.719Z,573.75
2018-11-04T09:31:09.710Z,596.25
2018-11-04T09:33:09.695Z,556.88
2018-11-04T09:34:09.687Z,528.75
2018-11-04T09:35:09.967Z,506.25
2018-11-04T09:36:09.814Z,500.63
2018-11-04T09:37:09.665Z,511.88
2018-11-04T09:38:09.655Z,511.88
2018-11-04T09:39:09.648Z,506.25
2018-11-04T09:40:09.639Z,489.38
2018-11-04T09:41:09.633Z,478.13
2018-11-04T09:42:09.625Z,472.50
2018-11-04T09:43:09.617Z,483.75
2018-11-04T09:44:09.610Z,528.75
2018-11-04T09:45:09.605Z,596.25
2018-11-04T09:46:09.596Z,669.38
2018-11-04T09:47:09.591Z,714.38
2018-11-04T09:48:09.589Z,708.75
2018-11-04T09:49:09.576Z,748.13
2018-11-04T09:50:09.655Z,843.75
2018-11-04T09:51:09.562Z,832.50
2018-11-04T09:52:09.553Z,860.63
2018-11-04T09:53:09.546Z,826.88
2018-11-04T09:54:09.541Z,748.13
2018-11-04T09:55:09.534Z,883.13
2018-11-04T09:56:09.532Z,849.38
2018-11-04T09:57:09.523Z,804.38
2018-11-04T09:59:09.511Z,725.63
2018-11-04T10:00:09.511Z,776.25
2018-11-04T10:01:09.501Z,798.75
2018-11-04T10:02:09.497Z,781.88
2018-11-04T10:03:09.492Z,787.50
2018-11-04T10:04:09.486Z,804.38
2018-11-04T10:05:09.484Z,793.13
2018-11-04T10:06:09.476Z,950.63
2018-11-04T10:07:09.552Z,1130.63
2018-11-04T10:08:09.466Z,1186.88
2018-11-04T10:09:09.473Z,1299.38
2018-11-04T10:10:09.463Z,1395.00
2018-11-04T10:11:09.463Z,1383.75
2018-11-04T10:12:09.451Z,1321.88
2018-11-04T10:13:09.454Z,1293.75
2018-11-04T10:14:09.448Z,1260.00
2018-11-04T10:15:09.448Z,1220.63
2018-11-04T10:16:09.496Z,1192.50
2018-11-04T10:17:09.444Z,1181.25
2018-11-04T10:18:09.444Z,1186.88
2018-11-04T10:19:09.625Z,1186.88
2018-11-04T10:20:09.884Z,1186.88
2018-11-04T10:21:10.095Z,1164.38
2018-11-04T10:22:09.439Z,1153.13
2018-11-04T10:23:09.439Z,1158.75
2018-11-04T10:24:09.436Z,1158.75
2018-11-04T10:25:09.436Z,1147.50
2018-11-04T10:26:09.438Z,1158.75
2018-11-04T10:27:09.434Z,1153.13
2018-11-04T10:28:09.434Z,1141.88
2018-11-04T10:29:09.438Z,1141.88
2018-11-04T10:30:09.455Z,1125.00
2018-11-04T10:31:09.431Z,1119.38
2018-11-04T10:32:09.435Z,1136.25
2018-11-04T10:33:09.431Z,1147.50
2018-11-04T10:34:09.433Z,1119.38
2018-11-04T10:35:09.428Z,1113.75
2018-11-04T10:36:09.457Z,1113.75
2018-11-04T10:37:09.465Z,1102.50
2018-11-04T10:38:09.428Z,1085.63
2018-11-04T10:39:09.425Z,1108.13
2018-11-04T10:40:09.426Z,1136.25
2018-11-04T10:41:09.429Z,1130.63
2018-11-04T10:42:09.456Z,1141.88
2018-11-04T10:43:09.424Z,1147.50
2018-11-04T10:44:09.421Z,1147.50
2018-11-04T10:45:09.420Z,1147.50
2018-11-04T10:46:09.421Z,1141.88
2018-11-04T10:47:09.418Z,1136.25
2018-11-04T10:48:09.416Z,1153.13
2018-11-04T10:49:09.422Z,1130.63
2018-11-04T10:50:09.420Z,1125.00
2018-11-04T10:51:09.410Z,1096.88
2018-11-04T10:52:09.408Z,1085.63
2018-11-04T10:53:09.405Z,1096.88
2018-11-04T10:54:09.406Z,1074.38
2018-11-04T10:55:09.398Z,1057.50
2018-11-04T10:56:09.397Z,961.88
2018-11-04T10:57:09.395Z,714.38
2018-11-04T10:58:09.393Z,585.00
2018-11-04T10:59:09.392Z,590.63
2018-11-04T11:00:09.388Z,601.88
2018-11-04T11:01:09.389Z,736.88
2018-11-04T11:02:09.386Z,860.63
2018-11-04T11:03:09.381Z,939.38
2018-11-04T11:04:09.378Z,978.75
2018-11-04T11:05:09.381Z,990.00
2018-11-04T11:06:09.372Z,990.00
2018-11-04T11:08:09.369Z,967.50
2018-11-04T11:09:09.372Z,945.00
2018-11-04T11:10:09.366Z,911.25
2018-11-04T11:11:09.453Z,911.25
2018-11-04T11:12:09.411Z,855.00
2018-11-04T11:13:09.357Z,855.00
2018-11-04T11:14:09.355Z,832.50
2018-11-04T11:15:09.355Z,826.88
2018-11-04T11:16:09.353Z,810.00
2018-11-04T11:17:09.349Z,798.75
2018-11-04T11:18:09.353Z,787.50
2018-11-04T11:19:09.343Z,725.63
2018-11-04T11:20:09.340Z,675.00
2018-11-04T11:21:09.346Z,579.38
2018-11-04T11:22:09.335Z,534.38
2018-11-04T11:23:09.470Z,528.75
2018-11-04T11:24:09.530Z,523.13
2018-11-04T11:25:09.328Z,528.75
2018-11-04T11:26:09.327Z,517.50
2018-11-04T11:27:09.322Z,528.75
2018-11-04T11:28:09.320Z,371.25
2018-11-04T11:29:09.317Z,444.38
2018-11-04T11:30:09.360Z,511.88
2018-11-04T11:31:09.311Z,500.63
2018-11-04T11:32:09.308Z,506.25
2018-11-04T11:33:09.309Z,393.75
2018-11-04T11:34:09.308Z,495.00
2018-11-04T11:35:09.301Z,511.88
2018-11-04T11:36:09.298Z,511.88
2018-11-04T11:37:09.304Z,523.13
2018-11-04T11:38:09.304Z,540.00
2018-11-04T11:39:09.291Z,607.50
2018-11-04T11:40:09.288Z,703.13
2018-11-04T11:41:09.285Z,781.88
2018-11-04T11:42:09.286Z,826.88
2018-11-04T11:43:09.285Z,855.00
2018-11-04T11:44:09.281Z,815.63
2018-11-04T11:45:09.278Z,826.88
2018-11-04T11:46:09.476Z,843.75
2018-11-04T11:47:09.273Z,860.63
2018-11-04T11:48:09.271Z,860.63
2018-11-04T11:49:09.270Z,866.25
2018-11-04T11:50:09.268Z,860.63
2018-11-04T11:51:09.270Z,838.13
2018-11-04T11:52:09.466Z,731.25
2018-11-04T11:53:09.262Z,551.25
2018-11-04T11:54:09.263Z,489.38
2018-11-04T11:55:09.257Z,489.38
2018-11-04T11:56:09.460Z,489.38
2018-11-04T11:57:09.253Z,551.25
2018-11-04T11:58:09.249Z,725.63
2018-11-04T11:59:09.252Z,810.00
2018-11-04T12:00:09.246Z,832.50
2018-11-04T12:01:09.249Z,821.25
2018-11-04T12:02:09.264Z,804.38
2018-11-04T12:03:09.239Z,753.75
2018-11-04T12:04:09.242Z,753.75
2018-11-04T12:05:09.237Z,770.63
2018-11-04T12:06:09.436Z,697.50
2018-11-04T12:07:09.234Z,562.50
2018-11-04T12:08:09.230Z,511.88
2018-11-04T12:09:09.232Z,517.50
2018-11-04T12:10:09.233Z,528.75
2018-11-04T12:11:09.225Z,556.88
2018-11-04T12:12:09.224Z,669.38
2018-11-04T12:13:09.223Z,748.13
2018-11-04T12:14:09.224Z,731.25
2018-11-04T12:15:09.421Z,725.63
2018-11-04T12:16:09.221Z,714.38
2018-11-04T12:17:09.218Z,714.38
2018-11-04T12:18:09.218Z,708.75
2018-11-04T12:19:09.214Z,703.13
2018-11-04T12:20:09.212Z,691.88
2018-11-04T12:21:09.414Z,708.75
2018-11-04T12:22:09.209Z,714.38
2018-11-04T12:23:09.207Z,708.75
2018-11-04T12:24:09.210Z,703.13
2018-11-04T12:25:09.205Z,703.13
2018-11-04T12:26:09.204Z,663.75
2018-11-04T12:27:09.207Z,601.88
2018-11-04T12:28:09.201Z,540.00
2018-11-04T12:29:09.200Z,495.00
2018-11-04T12:30:09.200Z,478.13
2018-11-04T12:31:09.198Z,472.50
2018-11-04T12:32:09.196Z,466.88
2018-11-04T12:33:09.195Z,478.13
2018-11-04T12:34:09.192Z,489.38
2018-11-04T12:35:09.245Z,500.63
2018-11-04T12:36:09.192Z,545.63
2018-11-04T12:37:09.189Z,590.63
2018-11-04T12:38:09.185Z,635.63
2018-11-04T12:39:09.182Z,652.50
2018-11-04T12:40:09.182Z,635.63
2018-11-04T12:41:09.183Z,630.00
2018-11-04T12:42:09.182Z,630.00
2018-11-04T12:43:09.180Z,607.50
2018-11-04T12:44:09.175Z,607.50
2018-11-04T12:45:09.178Z,596.25
2018-11-04T12:46:09.175Z,590.63
2018-11-04T12:47:09.170Z,585.00
2018-11-04T12:48:09.198Z,568.13
2018-11-04T12:49:09.167Z,579.38
2018-11-04T12:50:09.166Z,568.13
2018-11-04T12:51:09.165Z,551.25
2018-11-04T12:52:09.421Z,545.63
2018-11-04T12:53:09.162Z,540.00
2018-11-04T12:54:09.161Z,551.25
2018-11-04T12:55:09.157Z,568.13
2018-11-04T12:56:09.155Z,545.63